KFKL

Venango Regional Airport

Franklin, Pennsylvania, USA
METAR KFKL 200056Z AUTO 22013KT 10SM CLR 00/M08 A2993 RMK AO2 SLP155 T00001078 FZRANO
Observed Flight Rules
Jan-20 @ 00:56 UTC (28 minutes ago) Visual Flight Rules
Wind Visibility Clouds
220° at 13 knots 10 miles
  • Clear skies
Temperatures Readings
Current 0°C / 32°F
Dewpoint -8°C / 18°F
Humidity 55%
Altimeter 29.93" Hg
Pressure 1015.5 hPa
Elevation 469
METAR KFKL 200056Z AUTO 22013KT 10SM CLR 00/M08 A2993 RMK AO2 SLP155 T00001078 FZRANO
Observed Flight Rules
Jan-20 @ 00:56 UTC
(28 minutes ago)
VFR
Wind Visibility
220° at 13 knots 10 miles
Clouds
  • Clear skies
Temperature Dewpoint
0°C / 32°F -8°C / 18°F
Humidity Altimeter Pressure
55% 29.93" Hg 1015.5 hPa